createdAt,value
2019-04-07T00:01:58.399Z,47.03
2019-04-07T00:04:23.816Z,47.40
2019-04-07T00:06:49.352Z,46.28
2019-04-07T00:09:15.354Z,45.70
2019-04-07T00:11:40.777Z,45.87
2019-04-07T00:14:06.197Z,48.50
2019-04-07T00:16:31.670Z,47.73
2019-04-07T00:18:57.017Z,47.70
2019-04-07T00:21:22.381Z,45.77
2019-04-07T00:23:47.876Z,44.18
2019-04-07T00:26:13.600Z,46.13
2019-04-07T00:28:39.532Z,45.65
2019-04-07T00:31:05.166Z,47.10
2019-04-07T00:33:30.999Z,46.07
2019-04-07T00:35:56.913Z,44.87
2019-04-07T00:38:22.838Z,45.65
2019-04-07T00:40:48.240Z,44.85
2019-04-07T00:43:13.905Z,45.30
2019-04-07T00:45:39.317Z,46.47
2019-04-07T00:48:04.773Z,46.02
2019-04-07T00:50:31.720Z,44.18
2019-04-07T00:52:57.221Z,44.53
2019-04-07T00:55:23.023Z,44.50
2019-04-07T00:57:48.464Z,45.23
2019-04-07T01:00:17.224Z,45.90
2019-04-07T01:02:42.943Z,42.30
2019-04-07T01:05:09.228Z,43.20
2019-04-07T01:07:34.687Z,44.57
2019-04-07T01:10:07.555Z,45.55
2019-04-07T01:12:33.613Z,44.83
2019-04-07T01:14:59.633Z,44.15
2019-04-07T01:17:25.340Z,43.02
2019-04-07T01:19:50.990Z,45.60
2019-04-07T01:22:16.563Z,45.78
2019-04-07T01:24:42.225Z,41.80
2019-04-07T01:27:08.240Z,42.83
2019-04-07T01:29:34.179Z,43.80
2019-04-07T01:31:59.691Z,42.07
2019-04-07T01:34:25.130Z,44.65
2019-04-07T01:36:50.508Z,43.38
2019-04-07T01:39:16.109Z,43.90
2019-04-07T01:42:01.617Z,41.37
2019-04-07T01:44:35.684Z,43.20
2019-04-07T01:47:26.710Z,44.65
2019-04-07T01:50:08.845Z,42.70
2019-04-07T01:52:43.789Z,42.17
2019-04-07T01:55:28.435Z,43.53
2019-04-07T01:58:12.772Z,42.88
2019-04-07T02:00:48.921Z,42.53
2019-04-07T02:03:32.893Z,41.23
2019-04-07T02:06:14.332Z,43.52
2019-04-07T02:08:50.739Z,43.35
2019-04-07T02:11:25.552Z,44.27
2019-04-07T02:14:08.883Z,42.35
2019-04-07T02:16:53.157Z,41.68
2019-04-07T02:19:40.468Z,40.05
2019-04-07T02:22:28.975Z,40.80
2019-04-07T02:25:13.929Z,39.13
2019-04-07T02:27:58.048Z,41.98
2019-04-07T02:30:54.716Z,42.17
2019-04-07T02:33:27.650Z,41.60
2019-04-07T02:36:26.143Z,39.97
2019-04-07T02:39:11.117Z,41.47
2019-04-07T02:41:54.814Z,38.95
2019-04-07T02:44:51.584Z,40.52
2019-04-07T02:47:36.119Z,43.55
2019-04-07T02:50:33.270Z,39.03
2019-04-07T02:53:16.038Z,36.53
2019-04-07T02:56:01.582Z,38.08
2019-04-07T02:58:46.365Z,36.85
2019-04-07T03:01:30.697Z,38.42
2019-04-07T03:04:24.498Z,38.92
2019-04-07T03:07:07.720Z,36.93
2019-04-07T03:10:10.860Z,38.23
2019-04-07T03:12:51.950Z,37.87
2019-04-07T03:15:48.485Z,35.38
2019-04-07T03:18:26.996Z,38.73
2019-04-07T03:21:11.535Z,36.40
2019-04-07T03:23:45.683Z,36.10
2019-04-07T03:26:29.401Z,37.47
2019-04-07T03:29:03.765Z,36.98
2019-04-07T03:31:49.190Z,36.47
2019-04-07T03:34:33.488Z,35.43
2019-04-07T03:37:21.759Z,37.33
2019-04-07T03:39:55.499Z,34.77
2019-04-07T03:42:29.784Z,35.43
2019-04-07T03:45:20.416Z,36.33
2019-04-07T03:48:10.523Z,35.48
2019-04-07T03:50:59.917Z,37.30
2019-04-07T03:53:39.411Z,36.48
2019-04-07T03:56:27.193Z,35.68
2019-04-07T03:59:18.201Z,36.07
2019-04-07T04:02:09.872Z,35.43
2019-04-07T04:04:53.130Z,35.33
2019-04-07T04:07:31.308Z,37.77
2019-04-07T04:10:01.024Z,37.20
2019-04-07T04:12:37.579Z,36.87
2019-04-07T04:15:10.689Z,35.40
2019-04-07T04:17:36.967Z,35.73
2019-04-07T04:20:02.570Z,36.40
2019-04-07T04:22:29.017Z,37.00
2019-04-07T04:24:55.475Z,34.57
2019-04-07T04:27:21.610Z,34.10
2019-04-07T04:29:51.511Z,36.27
2019-04-07T04:32:14.139Z,34.73
2019-04-07T04:34:39.572Z,36.13
2019-04-07T04:37:05.053Z,35.93
2019-04-07T04:39:31.428Z,37.33
2019-04-07T04:41:57.705Z,36.33
2019-04-07T04:44:24.113Z,35.77
2019-04-07T04:46:49.853Z,34.80
2019-04-07T04:49:15.327Z,34.93
2019-04-07T04:51:41.064Z,36.43
2019-04-07T04:54:07.135Z,37.60
2019-04-07T04:56:32.908Z,36.00
2019-04-07T04:58:58.509Z,33.47
2019-04-07T05:01:24.163Z,35.90
2019-04-07T05:03:49.637Z,34.67
2019-04-07T05:06:15.382Z,33.27
2019-04-07T05:08:40.713Z,33.70
2019-04-07T05:11:06.750Z,33.00
2019-04-07T05:13:32.952Z,34.17
2019-04-07T05:15:59.407Z,34.17
2019-04-07T05:18:24.844Z,35.23
2019-04-07T05:20:50.351Z,35.53
2019-04-07T05:23:16.228Z,34.67
2019-04-07T05:25:41.720Z,35.40
2019-04-07T05:28:07.163Z,34.98
2019-04-07T05:30:32.565Z,33.40
2019-04-07T05:32:57.896Z,33.83
2019-04-07T05:35:24.076Z,33.63
2019-04-07T05:37:59.978Z,34.08
2019-04-07T05:40:16.749Z,32.07
2019-04-07T05:42:42.192Z,33.07
2019-04-07T05:45:08.271Z,35.03
2019-04-07T05:47:33.946Z,33.80
2019-04-07T05:50:00.579Z,35.17
2019-04-07T05:52:27.209Z,33.60
2019-04-07T05:54:53.393Z,33.93
2019-04-07T05:57:19.711Z,33.55
2019-04-07T05:59:45.177Z,35.00
2019-04-07T06:02:11.138Z,35.80
2019-04-07T06:04:36.567Z,34.75
2019-04-07T06:07:02.006Z,34.57
2019-04-07T06:09:28.081Z,35.03
2019-04-07T06:11:54.429Z,36.70
2019-04-07T06:14:20.483Z,36.50
2019-04-07T06:16:45.986Z,37.50
2019-04-07T06:19:11.704Z,36.85
2019-04-07T06:21:37.816Z,37.40
2019-04-07T06:24:03.556Z,38.27
2019-04-07T06:26:29.385Z,38.00
2019-04-07T06:28:58.488Z,37.00
2019-04-07T06:31:25.051Z,36.53
2019-04-07T06:33:49.910Z,39.25
2019-04-07T06:36:17.701Z,40.40
2019-04-07T06:38:46.498Z,40.37
2019-04-07T06:41:10.684Z,37.67
2019-04-07T06:43:38.183Z,36.03
2019-04-07T06:46:27.074Z,36.87
2019-04-07T06:49:11.274Z,37.27
2019-04-07T06:51:42.488Z,34.97
2019-04-07T06:54:30.791Z,35.70
2019-04-07T06:57:14.823Z,34.03
2019-04-07T07:00:08.227Z,32.93
2019-04-07T07:02:44.435Z,33.40
2019-04-07T07:05:33.405Z,35.90
2019-04-07T07:08:12.789Z,36.08
2019-04-07T07:10:58.520Z,33.53
2019-04-07T07:13:43.801Z,36.38
2019-04-07T07:16:33.851Z,34.38
2019-04-07T07:19:16.424Z,34.90
2019-04-07T07:21:59.629Z,34.90
2019-04-07T07:24:26.324Z,33.90
2019-04-07T07:26:52.862Z,35.15
2019-04-07T07:29:19.079Z,35.17
2019-04-07T07:31:44.925Z,36.33
2019-04-07T07:34:11.657Z,37.25
2019-04-07T07:36:37.297Z,36.45
2019-04-07T07:39:08.297Z,38.20
2019-04-07T07:41:30.135Z,37.35
2019-04-07T07:44:00.424Z,39.10
2019-04-07T07:46:23.793Z,37.70
2019-04-07T07:48:49.988Z,36.13
2019-04-07T07:51:16.391Z,37.70
2019-04-07T07:53:42.689Z,37.00
2019-04-07T07:56:11.455Z,38.05
2019-04-07T07:58:35.544Z,35.40
2019-04-07T08:01:01.455Z,36.53
2019-04-07T08:03:27.323Z,38.02
2019-04-07T08:05:53.331Z,38.73
2019-04-07T08:08:20.213Z,37.95
2019-04-07T08:10:46.280Z,34.95
2019-04-07T08:13:12.157Z,35.35
2019-04-07T08:15:37.814Z,36.53
2019-04-07T08:18:07.170Z,36.33
2019-04-07T08:20:30.687Z,34.18
2019-04-07T08:22:56.216Z,33.55
2019-04-07T08:25:23.660Z,35.13
2019-04-07T08:27:48.893Z,33.73
2019-04-07T08:30:14.607Z,33.35
2019-04-07T08:32:40.978Z,34.08
2019-04-07T08:35:06.913Z,33.38
2019-04-07T08:37:34.057Z,32.50
2019-04-07T08:40:07.154Z,29.23
2019-04-07T08:42:30.325Z,28.60
2019-04-07T08:44:58.599Z,27.48
2019-04-07T08:47:23.475Z,28.77
2019-04-07T08:49:49.542Z,28.10
2019-04-07T08:52:15.260Z,30.08
2019-04-07T08:54:40.834Z,30.35
2019-04-07T08:57:07.057Z,28.62
2019-04-07T08:59:32.859Z,28.98
2019-04-07T09:01:58.311Z,28.75
2019-04-07T09:04:24.175Z,29.63
2019-04-07T09:06:50.298Z,28.70
2019-04-07T09:09:15.863Z,25.88
2019-04-07T09:11:42.398Z,25.80
2019-04-07T09:14:08.688Z,24.10
2019-04-07T09:16:41.686Z,26.12
2019-04-07T09:19:35.867Z,26.05
2019-04-07T09:22:22.166Z,25.25
2019-04-07T09:25:08.492Z,24.45
2019-04-07T09:27:51.119Z,23.07
2019-04-07T09:30:35.657Z,22.67
2019-04-07T09:33:36.959Z,21.37
2019-04-07T09:36:14.804Z,23.02
2019-04-07T09:39:02.724Z,21.25
2019-04-07T09:41:52.657Z,20.27
2019-04-07T09:44:37.779Z,19.73
2019-04-07T09:47:31.432Z,18.85
2019-04-07T09:50:11.206Z,19.67
2019-04-07T09:52:49.389Z,15.93
2019-04-07T09:55:33.230Z,12.88
2019-04-07T09:58:10.907Z,12.18
2019-04-07T10:00:45.402Z,12.28
2019-04-07T10:03:21.138Z,12.18
2019-04-07T10:05:58.279Z,11.88
2019-04-07T10:08:35.206Z,13.93
2019-04-07T10:11:25.197Z,12.60
2019-04-07T10:14:08.385Z,13.70
2019-04-07T10:16:51.935Z,12.18
2019-04-07T10:19:32.981Z,12.23
2019-04-07T10:22:07.307Z,11.80
2019-04-07T10:24:50.518Z,10.32
2019-04-07T10:27:26.599Z,9.68
2019-04-07T10:30:09.966Z,10.60
2019-04-07T10:32:52.099Z,9.53
2019-04-07T10:35:37.351Z,10.45
2019-04-07T10:38:14.181Z,10.30
2019-04-07T10:40:59.352Z,10.98
2019-04-07T10:43:50.392Z,10.20
2019-04-07T10:46:39.525Z,9.80
2019-04-07T10:49:36.210Z,10.00
2019-04-07T10:52:36.033Z,9.48
2019-04-07T10:55:20.713Z,8.85
2019-04-07T10:57:52.409Z,8.45
2019-04-07T11:00:35.602Z,9.93
2019-04-07T11:03:08.835Z,8.40
2019-04-07T11:05:53.743Z,7.75
2019-04-07T11:08:42.229Z,7.30
2019-04-07T11:11:32.536Z,7.83
2019-04-07T11:14:21.781Z,7.95
2019-04-07T11:17:25.385Z,7.58
2019-04-07T11:20:06.740Z,7.20
2019-04-07T11:22:50.518Z,7.58
2019-04-07T11:25:29.545Z,7.37
2019-04-07T11:28:32.612Z,7.72
2019-04-07T11:31:19.772Z,8.28
2019-04-07T11:34:14.067Z,10.05
2019-04-07T11:36:59.490Z,10.82
2019-04-07T11:39:50.509Z,10.75
2019-04-07T11:42:33.394Z,10.95
2019-04-07T11:45:17.844Z,11.33
2019-04-07T11:47:54.680Z,11.05
2019-04-07T11:50:54.267Z,11.35
2019-04-07T11:53:47.869Z,10.32
2019-04-07T11:56:35.244Z,11.03
2019-04-07T11:59:22.435Z,11.43
2019-04-07T12:02:22.783Z,11.43
2019-04-07T12:05:10.215Z,11.03
2019-04-07T12:07:58.333Z,10.38
2019-04-07T12:10:54.198Z,10.10
2019-04-07T12:13:28.450Z,9.33
2019-04-07T12:16:22.218Z,10.10
2019-04-07T12:19:06.368Z,9.98
2019-04-07T12:21:54.710Z,9.78
2019-04-07T12:24:36.285Z,9.93
2019-04-07T12:27:15.136Z,9.25
2019-04-07T12:29:47.182Z,10.28
2019-04-07T12:32:49.845Z,10.85
2019-04-07T12:35:43.537Z,10.88
2019-04-07T12:38:22.987Z,11.05
2019-04-07T12:41:16.597Z,10.58
2019-04-07T12:43:51.644Z,10.53
2019-04-07T12:46:36.506Z,11.03
2019-04-07T12:49:19.074Z,10.90
2019-04-07T12:52:02.124Z,9.40
2019-04-07T12:55:01.763Z,10.43
2019-04-07T12:57:46.226Z,10.65
2019-04-07T13:00:55.672Z,10.18
2019-04-07T13:03:35.289Z,9.85
2019-04-07T13:06:17.968Z,10.58
2019-04-07T13:08:58.622Z,10.30
2019-04-07T13:11:38.454Z,10.58
2019-04-07T13:14:25.686Z,9.75
2019-04-07T13:17:20.569Z,10.15
2019-04-07T13:19:58.391Z,8.75
2019-04-07T13:22:57.080Z,10.50
2019-04-07T13:25:45.371Z,10.25
2019-04-07T13:28:17.477Z,10.20
2019-04-07T13:30:58.431Z,9.78
2019-04-07T13:33:39.372Z,9.78
2019-04-07T13:36:25.230Z,10.08
2019-04-07T13:39:19.467Z,11.03
2019-04-07T13:42:10.217Z,9.98
2019-04-07T13:45:03.506Z,10.55
2019-04-07T13:47:49.634Z,10.82
2019-04-07T13:50:31.095Z,10.75
2019-04-07T13:53:07.837Z,11.25
2019-04-07T13:55:50.952Z,11.55
2019-04-07T13:58:45.424Z,11.35
2019-04-07T14:01:31.210Z,10.58
2019-04-07T14:04:14.420Z,10.98
2019-04-07T14:06:47.891Z,11.50
2019-04-07T14:09:36.387Z,11.57
2019-04-07T14:12:18.674Z,10.68
2019-04-07T14:15:02.942Z,10.50
2019-04-07T14:17:48.137Z,10.80
2019-04-07T14:20:45.702Z,10.50
2019-04-07T14:23:30.142Z,12.23
2019-04-07T14:26:26.905Z,11.05
2019-04-07T14:29:20.332Z,11.28
2019-04-07T14:32:20.910Z,12.43
2019-04-07T14:35:05.451Z,12.65
2019-04-07T14:37:49.433Z,10.95
2019-04-07T14:40:33.411Z,12.30
2019-04-07T14:43:26.729Z,12.05
2019-04-07T14:46:21.190Z,11.65
2019-04-07T14:49:05.515Z,12.53
2019-04-07T14:51:49.963Z,13.18
2019-04-07T14:54:46.295Z,12.63
2019-04-07T14:57:24.444Z,12.93
2019-04-07T14:59:58.900Z,12.05
2019-04-07T15:02:24.792Z,12.93
2019-04-07T15:04:57.350Z,13.10
2019-04-07T15:07:40.868Z,12.37
2019-04-07T15:10:14.612Z,12.73
2019-04-07T15:12:44.133Z,13.98
2019-04-07T15:15:11.749Z,13.30
2019-04-07T15:17:37.094Z,12.78
2019-04-07T15:20:02.823Z,12.65
2019-04-07T15:22:29.965Z,13.22
2019-04-07T15:24:55.980Z,14.05
2019-04-07T15:27:23.652Z,14.05
2019-04-07T15:29:49.209Z,13.25
2019-04-07T15:32:14.808Z,12.55
2019-04-07T15:34:42.234Z,13.22
2019-04-07T15:37:07.861Z,12.13
2019-04-07T15:39:33.623Z,12.30
2019-04-07T15:41:59.122Z,12.70
2019-04-07T15:44:24.874Z,13.08
2019-04-07T15:46:53.250Z,12.28
2019-04-07T15:49:18.445Z,12.70
2019-04-07T15:51:44.017Z,11.20
2019-04-07T15:54:09.762Z,12.25
2019-04-07T15:56:35.700Z,12.00
2019-04-07T15:59:02.328Z,11.30
2019-04-07T16:01:28.062Z,10.98
2019-04-07T16:03:54.797Z,12.18
2019-04-07T16:06:20.705Z,12.30
2019-04-07T16:08:46.878Z,12.05
2019-04-07T16:11:12.890Z,11.70
2019-04-07T16:13:39.085Z,11.95
2019-04-07T16:16:05.839Z,12.33
2019-04-07T16:18:31.954Z,11.25
2019-04-07T16:20:57.569Z,11.93
2019-04-07T16:23:23.357Z,12.23
2019-04-07T16:25:49.419Z,11.78
2019-04-07T16:28:16.111Z,11.68
2019-04-07T16:30:41.782Z,12.90
2019-04-07T16:33:08.799Z,11.55
2019-04-07T16:35:34.574Z,11.83
2019-04-07T16:38:01.496Z,12.78
2019-04-07T16:40:28.069Z,12.95
2019-04-07T16:43:05.488Z,12.70
2019-04-07T16:45:21.254Z,13.10
2019-04-07T16:47:47.818Z,13.15
2019-04-07T16:50:18.116Z,12.25
2019-04-07T16:52:41.852Z,11.80
2019-04-07T16:55:29.081Z,12.93
2019-04-07T16:57:54.925Z,12.82
2019-04-07T17:00:21.344Z,11.20
2019-04-07T17:02:47.802Z,11.78
2019-04-07T17:05:15.090Z,11.28
2019-04-07T17:07:44.288Z,12.47
2019-04-07T17:10:09.709Z,12.55
2019-04-07T17:12:40.626Z,14.13
2019-04-07T17:15:06.352Z,13.83
2019-04-07T17:17:32.547Z,13.05
2019-04-07T17:19:59.629Z,14.13
2019-04-07T17:22:27.219Z,13.72
2019-04-07T17:24:53.266Z,13.25
2019-04-07T17:27:19.384Z,13.13
2019-04-07T17:29:45.966Z,12.95
2019-04-07T17:32:13.327Z,13.48
2019-04-07T17:34:41.692Z,12.78
2019-04-07T17:37:06.076Z,13.80
2019-04-07T17:39:49.499Z,13.90
2019-04-07T17:42:18.457Z,13.40
2019-04-07T17:45:07.420Z,14.28
2019-04-07T17:47:55.948Z,13.93
2019-04-07T17:50:44.201Z,13.75
2019-04-07T17:53:19.286Z,14.83
2019-04-07T17:56:05.548Z,13.80
2019-04-07T17:58:45.736Z,13.62
2019-04-07T18:01:24.895Z,14.55
2019-04-07T18:04:13.995Z,14.13
2019-04-07T18:06:56.376Z,12.63
2019-04-07T18:09:33.373Z,13.32
2019-04-07T18:12:30.581Z,14.55
2019-04-07T18:15:14.746Z,13.70
2019-04-07T18:17:59.375Z,13.88
2019-04-07T18:20:39.589Z,13.20
2019-04-07T18:23:26.512Z,13.80
2019-04-07T18:26:10.097Z,14.30
2019-04-07T18:28:52.172Z,14.13
2019-04-07T18:31:23.387Z,13.35
2019-04-07T18:34:06.678Z,14.18
2019-04-07T18:36:52.122Z,14.00
2019-04-07T18:39:36.312Z,14.03
2019-04-07T18:42:15.098Z,14.00
2019-04-07T18:45:07.952Z,14.25
2019-04-07T18:47:45.228Z,13.80
2019-04-07T18:50:48.444Z,14.60
2019-04-07T18:53:29.185Z,13.50
2019-04-07T18:56:22.759Z,13.15
2019-04-07T18:59:00.493Z,13.83
2019-04-07T19:01:45.073Z,13.58
2019-04-07T19:04:30.356Z,13.90
2019-04-07T19:07:02.310Z,13.22
2019-04-07T19:09:49.738Z,13.13
2019-04-07T19:12:47.741Z,14.53
2019-04-07T19:15:31.076Z,13.30
2019-04-07T19:18:16.149Z,14.40
2019-04-07T19:20:59.825Z,13.90
2019-04-07T19:23:43.707Z,14.25
2019-04-07T19:26:29.050Z,13.60
2019-04-07T19:29:12.319Z,13.75
2019-04-07T19:31:55.709Z,15.95
2019-04-07T19:34:40.950Z,16.12
2019-04-07T19:37:22.910Z,17.12
2019-04-07T19:40:06.634Z,18.73
2019-04-07T19:42:50.851Z,19.27
2019-04-07T19:45:35.013Z,18.77
2019-04-07T19:48:23.288Z,17.45
2019-04-07T19:51:15.467Z,16.50
2019-04-07T19:53:49.300Z,14.87
2019-04-07T19:56:32.870Z,15.68
2019-04-07T19:59:21.405Z,15.08
2019-04-07T20:02:18.500Z,14.63
2019-04-07T20:05:02.282Z,13.95
2019-04-07T20:07:50.849Z,14.18
2019-04-07T20:10:38.167Z,13.83
2019-04-07T20:13:24.382Z,15.23
2019-04-07T20:16:11.621Z,13.55
2019-04-07T20:18:44.440Z,14.13
2019-04-07T20:21:36.593Z,14.50
2019-04-07T20:24:09.144Z,15.38
2019-04-07T20:26:45.532Z,16.60
2019-04-07T20:29:19.732Z,15.45
2019-04-07T20:31:59.050Z,16.00
2019-04-07T20:34:36.592Z,16.62
2019-04-07T20:37:17.844Z,17.25
2019-04-07T20:40:00.316Z,16.87
2019-04-07T20:42:37.580Z,17.20
2019-04-07T20:45:22.731Z,16.55
2019-04-07T20:48:07.467Z,16.60
2019-04-07T20:50:50.546Z,17.82
2019-04-07T20:53:32.408Z,17.82
2019-04-07T20:56:17.497Z,18.12
2019-04-07T20:59:04.647Z,16.87
2019-04-07T21:02:03.129Z,18.52
2019-04-07T21:04:37.469Z,16.65
2019-04-07T21:07:25.021Z,17.65
2019-04-07T21:09:58.740Z,17.02
2019-04-07T21:12:42.788Z,17.60
2019-04-07T21:15:30.402Z,17.90
2019-04-07T21:18:23.536Z,17.57
2019-04-07T21:20:57.772Z,18.27
2019-04-07T21:23:30.169Z,15.75
2019-04-07T21:26:20.938Z,17.67
2019-04-07T21:29:09.890Z,18.87
2019-04-07T21:31:47.608Z,19.10
2019-04-07T21:34:45.001Z,19.12
2019-04-07T21:37:45.747Z,17.75
2019-04-07T21:40:32.049Z,18.12
2019-04-07T21:43:20.101Z,16.57
2019-04-07T21:45:54.758Z,18.30
2019-04-07T21:48:37.482Z,18.35
2019-04-07T21:51:13.478Z,15.93
2019-04-07T21:53:47.492Z,16.60
2019-04-07T21:56:18.427Z,16.25
2019-04-07T21:59:21.483Z,17.80
2019-04-07T22:02:11.442Z,16.90
2019-04-07T22:04:56.912Z,17.52
2019-04-07T22:07:46.262Z,17.92
2019-04-07T22:10:12.350Z,16.50
2019-04-07T22:12:38.039Z,16.55
2019-04-07T22:15:04.636Z,17.20
2019-04-07T22:17:34.221Z,17.37
2019-04-07T22:19:57.290Z,17.20
2019-04-07T22:22:24.069Z,17.20
2019-04-07T22:24:50.705Z,18.90
2019-04-07T22:27:21.264Z,16.80
2019-04-07T22:29:43.716Z,18.40
2019-04-07T22:32:09.255Z,18.30
2019-04-07T22:34:35.578Z,18.00
2019-04-07T22:37:01.179Z,19.12
2019-04-07T22:39:28.912Z,18.98
2019-04-07T22:41:56.087Z,18.87
2019-04-07T22:44:22.249Z,18.92
2019-04-07T22:46:51.927Z,19.07
2019-04-07T22:49:15.769Z,19.23
2019-04-07T22:51:44.521Z,19.77
2019-04-07T22:54:08.436Z,20.77
2019-04-07T22:56:36.614Z,19.65
2019-04-07T22:59:01.653Z,19.92
2019-04-07T23:01:27.249Z,20.08
2019-04-07T23:03:53.791Z,20.37
2019-04-07T23:06:19.929Z,21.70
2019-04-07T23:08:45.394Z,20.72
2019-04-07T23:11:10.888Z,23.00
2019-04-07T23:13:36.484Z,20.40
2019-04-07T23:16:10.773Z,21.50
2019-04-07T23:18:29.737Z,22.20
2019-04-07T23:20:55.651Z,20.35
2019-04-07T23:23:21.802Z,21.85
2019-04-07T23:25:47.378Z,20.92
2019-04-07T23:28:12.868Z,21.57
2019-04-07T23:30:38.377Z,22.98
2019-04-07T23:33:04.234Z,23.07
2019-04-07T23:35:29.703Z,22.25
2019-04-07T23:37:55.349Z,23.35
2019-04-07T23:40:20.974Z,21.90
2019-04-07T23:42:46.721Z,22.27
2019-04-07T23:45:12.348Z,23.10
2019-04-07T23:47:38.650Z,23.60
2019-04-07T23:50:04.892Z,23.42
2019-04-07T23:52:31.222Z,23.32
2019-04-07T23:54:56.806Z,22.27
2019-04-07T23:57:22.334Z,23.12
2019-04-07T23:59:48.575Z,24.57
